sensor_id;sensor_type;location;lat;lon;timestamp;P1;durP1;ratioP1;P2;durP2;ratioP2
75843;SDS011;64492;51.270;3.912;2022-12-04T00:01:40;14.93;;;8.57;;
75843;SDS011;64492;51.270;3.912;2022-12-04T00:04:07;14.75;;;8.40;;
75843;SDS011;64492;51.270;3.912;2022-12-04T00:06:34;17.10;;;8.60;;
75843;SDS011;64492;51.270;3.912;2022-12-04T00:09:01;16.48;;;8.73;;
75843;SDS011;64492;51.270;3.912;2022-12-04T00:11:30;16.42;;;9.18;;
75843;SDS011;64492;51.270;3.912;2022-12-04T00:13:58;15.38;;;8.45;;
75843;SDS011;64492;51.270;3.912;2022-12-04T00:18:53;17.48;;;8.77;;
75843;SDS011;64492;51.270;3.912;2022-12-04T00:21:20;14.70;;;8.35;;
75843;SDS011;64492;51.270;3.912;2022-12-04T00:23:47;16.65;;;8.93;;
75843;SDS011;64492;51.270;3.912;2022-12-04T00:26:15;15.98;;;9.07;;
75843;SDS011;64492;51.270;3.912;2022-12-04T00:31:11;13.82;;;8.18;;
75843;SDS011;64492;51.270;3.912;2022-12-04T00:33:40;14.88;;;9.10;;
75843;SDS011;64492;51.270;3.912;2022-12-04T00:36:07;18.00;;;10.27;;
75843;SDS011;64492;51.270;3.912;2022-12-04T00:38:35;16.35;;;9.23;;
75843;SDS011;64492;51.270;3.912;2022-12-04T00:41:03;14.63;;;8.85;;
75843;SDS011;64492;51.270;3.912;2022-12-04T00:43:30;16.23;;;8.93;;
75843;SDS011;64492;51.270;3.912;2022-12-04T00:45:57;15.43;;;9.75;;
75843;SDS011;64492;51.270;3.912;2022-12-04T00:48:25;15.77;;;9.07;;
75843;SDS011;64492;51.270;3.912;2022-12-04T00:50:51;17.08;;;9.82;;
75843;SDS011;64492;51.270;3.912;2022-12-04T00:53:19;16.90;;;9.45;;
75843;SDS011;64492;51.270;3.912;2022-12-04T00:55:46;14.63;;;8.60;;
75843;SDS011;64492;51.270;3.912;2022-12-04T00:58:12;15.65;;;8.98;;
75843;SDS011;64492;51.270;3.912;2022-12-04T01:00:39;17.48;;;9.10;;
75843;SDS011;64492;51.270;3.912;2022-12-04T01:03:07;16.52;;;8.63;;
75843;SDS011;64492;51.270;3.912;2022-12-04T01:05:38;13.82;;;8.77;;
75843;SDS011;64492;51.270;3.912;2022-12-04T01:08:05;16.80;;;9.02;;
75843;SDS011;64492;51.270;3.912;2022-12-04T01:10:31;16.48;;;9.43;;
75843;SDS011;64492;51.270;3.912;2022-12-04T01:12:58;16.85;;;9.45;;
75843;SDS011;64492;51.270;3.912;2022-12-04T01:15:24;16.50;;;9.43;;
75843;SDS011;64492;51.270;3.912;2022-12-04T01:17:51;16.13;;;9.13;;
75843;SDS011;64492;51.270;3.912;2022-12-04T01:20:17;18.50;;;9.65;;
75843;SDS011;64492;51.270;3.912;2022-12-04T01:22:45;16.65;;;9.32;;
75843;SDS011;64492;51.270;3.912;2022-12-04T01:25:12;15.60;;;9.52;;
75843;SDS011;64492;51.270;3.912;2022-12-04T01:27:38;17.02;;;9.18;;
75843;SDS011;64492;51.270;3.912;2022-12-04T01:30:05;16.95;;;9.43;;
75843;SDS011;64492;51.270;3.912;2022-12-04T01:32:32;17.35;;;9.00;;
75843;SDS011;64492;51.270;3.912;2022-12-04T01:34:59;15.35;;;8.68;;
75843;SDS011;64492;51.270;3.912;2022-12-04T01:37:25;17.77;;;9.90;;
75843;SDS011;64492;51.270;3.912;2022-12-04T01:39:53;16.48;;;9.63;;
75843;SDS011;64492;51.270;3.912;2022-12-04T01:42:20;16.65;;;9.40;;
75843;SDS011;64492;51.270;3.912;2022-12-04T01:47:42;18.75;;;9.18;;
75843;SDS011;64492;51.270;3.912;2022-12-04T01:50:09;16.35;;;9.73;;
75843;SDS011;64492;51.270;3.912;2022-12-04T01:52:36;15.43;;;8.73;;
75843;SDS011;64492;51.270;3.912;2022-12-04T01:55:04;17.75;;;10.52;;
75843;SDS011;64492;51.270;3.912;2022-12-04T01:57:31;15.02;;;9.18;;
75843;SDS011;64492;51.270;3.912;2022-12-04T02:02:28;20.98;;;10.05;;
75843;SDS011;64492;51.270;3.912;2022-12-04T02:04:56;17.45;;;9.40;;
75843;SDS011;64492;51.270;3.912;2022-12-04T02:07:22;15.55;;;9.45;;
75843;SDS011;64492;51.270;3.912;2022-12-04T02:09:49;15.05;;;9.25;;
75843;SDS011;64492;51.270;3.912;2022-12-04T02:12:21;16.42;;;9.18;;
75843;SDS011;64492;51.270;3.912;2022-12-04T02:14:51;18.88;;;10.32;;
75843;SDS011;64492;51.270;3.912;2022-12-04T02:17:21;18.33;;;9.77;;
75843;SDS011;64492;51.270;3.912;2022-12-04T02:19:56;18.50;;;10.25;;
75843;SDS011;64492;51.270;3.912;2022-12-04T02:22:47;16.08;;;9.18;;
75843;SDS011;64492;51.270;3.912;2022-12-04T02:25:50;17.52;;;9.43;;
75843;SDS011;64492;51.270;3.912;2022-12-04T02:30:48;17.92;;;9.20;;
75843;SDS011;64492;51.270;3.912;2022-12-04T02:33:16;18.35;;;9.98;;
75843;SDS011;64492;51.270;3.912;2022-12-04T02:35:45;18.15;;;9.93;;
75843;SDS011;64492;51.270;3.912;2022-12-04T02:38:16;19.25;;;10.10;;
75843;SDS011;64492;51.270;3.912;2022-12-04T02:40:49;18.30;;;10.27;;
75843;SDS011;64492;51.270;3.912;2022-12-04T02:43:17;20.25;;;10.32;;
75843;SDS011;64492;51.270;3.912;2022-12-04T02:45:51;16.42;;;9.57;;
75843;SDS011;64492;51.270;3.912;2022-12-04T02:48:22;18.38;;;10.75;;
75843;SDS011;64492;51.270;3.912;2022-12-04T02:50:50;17.38;;;10.50;;
75843;SDS011;64492;51.270;3.912;2022-12-04T02:53:19;18.40;;;10.35;;
75843;SDS011;64492;51.270;3.912;2022-12-04T02:55:49;19.25;;;10.20;;
75843;SDS011;64492;51.270;3.912;2022-12-04T02:58:19;20.02;;;11.00;;
75843;SDS011;64492;51.270;3.912;2022-12-04T03:00:52;18.85;;;10.45;;
75843;SDS011;64492;51.270;3.912;2022-12-04T03:03:20;21.00;;;10.90;;
75843;SDS011;64492;51.270;3.912;2022-12-04T03:05:49;20.02;;;10.60;;
75843;SDS011;64492;51.270;3.912;2022-12-04T03:08:21;20.55;;;10.20;;
75843;SDS011;64492;51.270;3.912;2022-12-04T03:10:52;18.55;;;9.93;;
75843;SDS011;64492;51.270;3.912;2022-12-04T03:13:20;18.80;;;9.60;;
75843;SDS011;64492;51.270;3.912;2022-12-04T03:15:49;18.40;;;10.00;;
75843;SDS011;64492;51.270;3.912;2022-12-04T03:18:22;20.95;;;10.65;;
75843;SDS011;64492;51.270;3.912;2022-12-04T03:20:53;20.52;;;10.63;;
75843;SDS011;64492;51.270;3.912;2022-12-04T03:23:22;18.63;;;10.20;;
75843;SDS011;64492;51.270;3.912;2022-12-04T03:25:55;18.33;;;10.55;;
75843;SDS011;64492;51.270;3.912;2022-12-04T03:28:24;18.23;;;10.73;;
75843;SDS011;64492;51.270;3.912;2022-12-04T03:30:56;21.10;;;10.73;;
75843;SDS011;64492;51.270;3.912;2022-12-04T03:33:26;19.75;;;9.90;;
75843;SDS011;64492;51.270;3.912;2022-12-04T03:35:56;17.90;;;9.65;;
75843;SDS011;64492;51.270;3.912;2022-12-04T03:38:27;17.67;;;10.43;;
75843;SDS011;64492;51.270;3.912;2022-12-04T03:41:01;20.40;;;10.05;;
75843;SDS011;64492;51.270;3.912;2022-12-04T03:43:31;18.23;;;9.98;;
75843;SDS011;64492;51.270;3.912;2022-12-04T03:46:02;17.63;;;9.52;;
75843;SDS011;64492;51.270;3.912;2022-12-04T03:48:32;19.45;;;10.55;;
75843;SDS011;64492;51.270;3.912;2022-12-04T03:51:05;18.73;;;10.25;;
75843;SDS011;64492;51.270;3.912;2022-12-04T03:53:35;18.38;;;10.45;;
75843;SDS011;64492;51.270;3.912;2022-12-04T03:56:05;20.08;;;10.05;;
75843;SDS011;64492;51.270;3.912;2022-12-04T03:58:36;18.83;;;10.32;;
75843;SDS011;64492;51.270;3.912;2022-12-04T04:01:05;22.20;;;11.60;;
75843;SDS011;64492;51.270;3.912;2022-12-04T04:03:34;17.80;;;10.15;;
75843;SDS011;64492;51.270;3.912;2022-12-04T04:06:03;16.98;;;9.45;;
75843;SDS011;64492;51.270;3.912;2022-12-04T04:08:33;18.00;;;10.13;;
75843;SDS011;64492;51.270;3.912;2022-12-04T04:11:03;19.60;;;10.77;;
75843;SDS011;64492;51.270;3.912;2022-12-04T04:13:34;18.05;;;10.15;;
75843;SDS011;64492;51.270;3.912;2022-12-04T04:16:23;16.58;;;9.88;;
75843;SDS011;64492;51.270;3.912;2022-12-04T04:19:08;17.70;;;10.00;;
75843;SDS011;64492;51.270;3.912;2022-12-04T04:21:52;18.08;;;9.45;;
75843;SDS011;64492;51.270;3.912;2022-12-04T04:24:38;17.83;;;10.10;;
75843;SDS011;64492;51.270;3.912;2022-12-04T04:27:07;18.75;;;10.77;;
75843;SDS011;64492;51.270;3.912;2022-12-04T04:29:33;18.15;;;10.68;;
75843;SDS011;64492;51.270;3.912;2022-12-04T04:32:03;17.58;;;10.27;;
75843;SDS011;64492;51.270;3.912;2022-12-04T04:34:34;17.63;;;10.68;;
75843;SDS011;64492;51.270;3.912;2022-12-04T04:37:05;16.73;;;9.45;;
75843;SDS011;64492;51.270;3.912;2022-12-04T04:39:35;19.35;;;10.50;;
75843;SDS011;64492;51.270;3.912;2022-12-04T04:42:05;20.58;;;10.35;;
75843;SDS011;64492;51.270;3.912;2022-12-04T04:44:38;19.35;;;11.02;;
75843;SDS011;64492;51.270;3.912;2022-12-04T04:47:11;17.48;;;10.20;;
75843;SDS011;64492;51.270;3.912;2022-12-04T04:49:39;19.38;;;10.93;;
75843;SDS011;64492;51.270;3.912;2022-12-04T04:52:07;18.10;;;10.07;;
75843;SDS011;64492;51.270;3.912;2022-12-04T04:54:34;18.30;;;9.75;;
75843;SDS011;64492;51.270;3.912;2022-12-04T04:57:01;17.90;;;10.10;;
75843;SDS011;64492;51.270;3.912;2022-12-04T04:59:27;16.38;;;9.48;;
75843;SDS011;64492;51.270;3.912;2022-12-04T05:01:54;18.70;;;10.95;;
75843;SDS011;64492;51.270;3.912;2022-12-04T05:04:23;20.25;;;11.15;;
75843;SDS011;64492;51.270;3.912;2022-12-04T05:06:49;17.45;;;9.98;;
75843;SDS011;64492;51.270;3.912;2022-12-04T05:09:16;18.02;;;10.35;;
75843;SDS011;64492;51.270;3.912;2022-12-04T05:11:42;16.88;;;9.95;;
75843;SDS011;64492;51.270;3.912;2022-12-04T05:14:09;16.90;;;10.02;;
75843;SDS011;64492;51.270;3.912;2022-12-04T05:16:35;18.05;;;10.52;;
75843;SDS011;64492;51.270;3.912;2022-12-04T05:19:02;16.38;;;10.32;;
75843;SDS011;64492;51.270;3.912;2022-12-04T05:21:47;17.55;;;10.35;;
75843;SDS011;64492;51.270;3.912;2022-12-04T05:24:13;17.08;;;10.32;;
75843;SDS011;64492;51.270;3.912;2022-12-04T05:26:40;19.77;;;10.60;;
75843;SDS011;64492;51.270;3.912;2022-12-04T05:29:06;16.98;;;9.43;;
75843;SDS011;64492;51.270;3.912;2022-12-04T05:31:33;18.25;;;10.65;;
75843;SDS011;64492;51.270;3.912;2022-12-04T05:33:59;17.30;;;10.00;;
75843;SDS011;64492;51.270;3.912;2022-12-04T05:36:26;18.05;;;10.80;;
75843;SDS011;64492;51.270;3.912;2022-12-04T05:38:54;18.75;;;10.15;;
75843;SDS011;64492;51.270;3.912;2022-12-04T05:41:20;17.25;;;10.02;;
75843;SDS011;64492;51.270;3.912;2022-12-04T05:43:47;19.13;;;11.10;;
75843;SDS011;64492;51.270;3.912;2022-12-04T05:46:13;17.75;;;10.50;;
75843;SDS011;64492;51.270;3.912;2022-12-04T05:48:40;15.93;;;9.98;;
75843;SDS011;64492;51.270;3.912;2022-12-04T05:51:07;17.83;;;10.63;;
75843;SDS011;64492;51.270;3.912;2022-12-04T05:53:34;17.95;;;10.23;;
75843;SDS011;64492;51.270;3.912;2022-12-04T05:56:02;15.65;;;10.15;;
75843;SDS011;64492;51.270;3.912;2022-12-04T05:58:30;19.45;;;10.10;;
75843;SDS011;64492;51.270;3.912;2022-12-04T06:00:58;16.85;;;9.90;;
75843;SDS011;64492;51.270;3.912;2022-12-04T06:03:25;21.27;;;11.20;;
75843;SDS011;64492;51.270;3.912;2022-12-04T06:05:52;17.20;;;10.10;;
75843;SDS011;64492;51.270;3.912;2022-12-04T06:08:18;17.98;;;10.27;;
75843;SDS011;64492;51.270;3.912;2022-12-04T06:10:45;18.55;;;10.57;;
75843;SDS011;64492;51.270;3.912;2022-12-04T06:13:13;16.98;;;9.77;;
75843;SDS011;64492;51.270;3.912;2022-12-04T06:15:39;18.75;;;10.02;;
75843;SDS011;64492;51.270;3.912;2022-12-04T06:18:06;17.52;;;10.32;;
75843;SDS011;64492;51.270;3.912;2022-12-04T06:20:33;16.52;;;9.57;;
75843;SDS011;64492;51.270;3.912;2022-12-04T06:22:59;15.98;;;9.77;;
75843;SDS011;64492;51.270;3.912;2022-12-04T06:25:26;18.25;;;11.40;;
75843;SDS011;64492;51.270;3.912;2022-12-04T06:27:53;19.92;;;10.23;;
75843;SDS011;64492;51.270;3.912;2022-12-04T06:30:21;15.13;;;9.48;;
75843;SDS011;64492;51.270;3.912;2022-12-04T06:32:47;16.88;;;10.07;;
75843;SDS011;64492;51.270;3.912;2022-12-04T06:35:14;16.83;;;10.15;;
75843;SDS011;64492;51.270;3.912;2022-12-04T06:37:40;16.05;;;9.27;;
75843;SDS011;64492;51.270;3.912;2022-12-04T06:40:07;17.58;;;10.55;;
75843;SDS011;64492;51.270;3.912;2022-12-04T06:42:34;19.38;;;10.35;;
75843;SDS011;64492;51.270;3.912;2022-12-04T06:45:00;16.88;;;10.23;;
75843;SDS011;64492;51.270;3.912;2022-12-04T06:47:28;16.02;;;9.68;;
75843;SDS011;64492;51.270;3.912;2022-12-04T06:49:55;18.00;;;10.27;;
75843;SDS011;64492;51.270;3.912;2022-12-04T06:52:21;18.25;;;9.77;;
75843;SDS011;64492;51.270;3.912;2022-12-04T06:54:48;16.02;;;10.63;;
75843;SDS011;64492;51.270;3.912;2022-12-04T06:57:14;17.60;;;10.05;;
75843;SDS011;64492;51.270;3.912;2022-12-04T06:59:41;18.02;;;10.65;;
75843;SDS011;64492;51.270;3.912;2022-12-04T07:02:07;16.15;;;10.20;;
75843;SDS011;64492;51.270;3.912;2022-12-04T07:04:35;17.27;;;10.40;;
75843;SDS011;64492;51.270;3.912;2022-12-04T07:07:02;18.02;;;9.35;;
75843;SDS011;64492;51.270;3.912;2022-12-04T07:09:28;17.45;;;9.93;;
75843;SDS011;64492;51.270;3.912;2022-12-04T07:11:55;17.42;;;10.60;;
75843;SDS011;64492;51.270;3.912;2022-12-04T07:14:21;17.02;;;9.98;;
75843;SDS011;64492;51.270;3.912;2022-12-04T07:16:48;19.17;;;10.60;;
75843;SDS011;64492;51.270;3.912;2022-12-04T07:19:14;16.65;;;9.45;;
75843;SDS011;64492;51.270;3.912;2022-12-04T07:21:42;18.00;;;9.95;;
75843;SDS011;64492;51.270;3.912;2022-12-04T07:24:10;16.52;;;9.02;;
75843;SDS011;64492;51.270;3.912;2022-12-04T07:26:39;16.75;;;10.35;;
75843;SDS011;64492;51.270;3.912;2022-12-04T07:29:05;18.45;;;10.43;;
75843;SDS011;64492;51.270;3.912;2022-12-04T07:31:32;16.38;;;9.65;;
75843;SDS011;64492;51.270;3.912;2022-12-04T07:33:58;17.63;;;9.68;;
75843;SDS011;64492;51.270;3.912;2022-12-04T07:36:25;16.35;;;9.77;;
75843;SDS011;64492;51.270;3.912;2022-12-04T07:38:54;15.70;;;9.63;;
75843;SDS011;64492;51.270;3.912;2022-12-04T07:41:21;17.00;;;10.32;;
75843;SDS011;64492;51.270;3.912;2022-12-04T07:43:47;16.40;;;9.45;;
75843;SDS011;64492;51.270;3.912;2022-12-04T07:46:14;17.55;;;10.50;;
75843;SDS011;64492;51.270;3.912;2022-12-04T07:48:42;16.48;;;10.02;;
75843;SDS011;64492;51.270;3.912;2022-12-04T07:51:09;17.23;;;10.05;;
75843;SDS011;64492;51.270;3.912;2022-12-04T07:53:37;16.85;;;10.18;;
75843;SDS011;64492;51.270;3.912;2022-12-04T07:56:05;15.65;;;9.57;;
75843;SDS011;64492;51.270;3.912;2022-12-04T07:58:33;19.13;;;10.30;;
75843;SDS011;64492;51.270;3.912;2022-12-04T08:01:06;17.52;;;9.70;;
75843;SDS011;64492;51.270;3.912;2022-12-04T08:03:34;20.23;;;11.13;;
75843;SDS011;64492;51.270;3.912;2022-12-04T08:06:01;17.63;;;10.68;;
75843;SDS011;64492;51.270;3.912;2022-12-04T08:08:29;17.35;;;9.65;;
75843;SDS011;64492;51.270;3.912;2022-12-04T08:10:56;17.98;;;10.75;;
75843;SDS011;64492;51.270;3.912;2022-12-04T08:13:24;16.95;;;9.90;;
75843;SDS011;64492;51.270;3.912;2022-12-04T08:15:51;16.48;;;9.38;;
75843;SDS011;64492;51.270;3.912;2022-12-04T08:18:17;17.75;;;10.60;;
75843;SDS011;64492;51.270;3.912;2022-12-04T08:20:44;18.08;;;10.25;;
75843;SDS011;64492;51.270;3.912;2022-12-04T08:23:10;15.65;;;9.07;;
75843;SDS011;64492;51.270;3.912;2022-12-04T08:25:37;18.90;;;10.90;;
75843;SDS011;64492;51.270;3.912;2022-12-04T08:28:04;16.63;;;10.10;;
75843;SDS011;64492;51.270;3.912;2022-12-04T08:30:33;16.50;;;9.88;;
75843;SDS011;64492;51.270;3.912;2022-12-04T08:32:59;16.85;;;9.75;;
75843;SDS011;64492;51.270;3.912;2022-12-04T08:35:27;16.80;;;10.15;;
75843;SDS011;64492;51.270;3.912;2022-12-04T08:37:53;17.90;;;10.23;;
75843;SDS011;64492;51.270;3.912;2022-12-04T08:40:20;18.77;;;11.75;;
75843;SDS011;64492;51.270;3.912;2022-12-04T08:42:47;16.58;;;9.25;;
75843;SDS011;64492;51.270;3.912;2022-12-04T08:45:13;19.38;;;10.02;;
75843;SDS011;64492;51.270;3.912;2022-12-04T08:47:41;15.80;;;9.25;;
75843;SDS011;64492;51.270;3.912;2022-12-04T08:50:08;16.83;;;10.13;;
75843;SDS011;64492;51.270;3.912;2022-12-04T08:52:35;17.77;;;10.48;;
75843;SDS011;64492;51.270;3.912;2022-12-04T08:55:01;19.92;;;10.57;;
75843;SDS011;64492;51.270;3.912;2022-12-04T08:57:28;22.25;;;9.75;;
75843;SDS011;64492;51.270;3.912;2022-12-04T08:59:54;17.67;;;11.10;;
75843;SDS011;64492;51.270;3.912;2022-12-04T09:02:21;17.27;;;9.50;;
75843;SDS011;64492;51.270;3.912;2022-12-04T09:04:48;16.85;;;10.23;;
75843;SDS011;64492;51.270;3.912;2022-12-04T09:07:15;17.10;;;10.10;;
75843;SDS011;64492;51.270;3.912;2022-12-04T09:09:41;19.27;;;10.88;;
75843;SDS011;64492;51.270;3.912;2022-12-04T09:12:08;17.25;;;10.27;;
75843;SDS011;64492;51.270;3.912;2022-12-04T09:14:34;15.60;;;9.45;;
75843;SDS011;64492;51.270;3.912;2022-12-04T09:17:01;15.07;;;9.38;;
75843;SDS011;64492;51.270;3.912;2022-12-04T09:19:27;15.88;;;9.70;;
75843;SDS011;64492;51.270;3.912;2022-12-04T09:21:57;19.25;;;10.63;;
75843;SDS011;64492;51.270;3.912;2022-12-04T09:24:23;15.93;;;9.95;;
75843;SDS011;64492;51.270;3.912;2022-12-04T09:26:50;18.27;;;10.75;;
75843;SDS011;64492;51.270;3.912;2022-12-04T09:29:16;18.58;;;10.60;;
75843;SDS011;64492;51.270;3.912;2022-12-04T09:31:43;16.55;;;10.05;;
75843;SDS011;64492;51.270;3.912;2022-12-04T09:34:09;20.67;;;10.45;;
75843;SDS011;64492;51.270;3.912;2022-12-04T09:36:36;17.98;;;10.57;;
75843;SDS011;64492;51.270;3.912;2022-12-04T09:39:04;15.70;;;9.05;;
75843;SDS011;64492;51.270;3.912;2022-12-04T09:41:37;17.25;;;9.70;;
75843;SDS011;64492;51.270;3.912;2022-12-04T09:44:19;15.77;;;9.32;;
75843;SDS011;64492;51.270;3.912;2022-12-04T09:46:49;17.80;;;9.93;;
75843;SDS011;64492;51.270;3.912;2022-12-04T09:49:20;16.27;;;9.98;;
75843;SDS011;64492;51.270;3.912;2022-12-04T09:51:48;18.90;;;10.73;;
75843;SDS011;64492;51.270;3.912;2022-12-04T09:54:17;15.90;;;9.70;;
75843;SDS011;64492;51.270;3.912;2022-12-04T09:56:47;17.63;;;10.23;;
75843;SDS011;64492;51.270;3.912;2022-12-04T09:59:18;15.48;;;9.32;;
75843;SDS011;64492;51.270;3.912;2022-12-04T10:01:47;17.02;;;10.52;;
75843;SDS011;64492;51.270;3.912;2022-12-04T10:04:15;18.63;;;10.13;;
75843;SDS011;64492;51.270;3.912;2022-12-04T10:06:44;15.73;;;9.32;;
75843;SDS011;64492;51.270;3.912;2022-12-04T10:09:15;17.88;;;10.45;;
75843;SDS011;64492;51.270;3.912;2022-12-04T10:11:46;16.60;;;11.27;;
75843;SDS011;64492;51.270;3.912;2022-12-04T10:14:19;17.05;;;9.63;;
75843;SDS011;64492;51.270;3.912;2022-12-04T10:20:12;18.52;;;11.05;;
75843;SDS011;64492;51.270;3.912;2022-12-04T10:22:48;18.05;;;10.55;;
75843;SDS011;64492;51.270;3.912;2022-12-04T10:25:22;21.15;;;11.50;;
75843;SDS011;64492;51.270;3.912;2022-12-04T10:27:50;17.70;;;10.65;;
75843;SDS011;64492;51.270;3.912;2022-12-04T10:30:19;18.10;;;11.15;;
75843;SDS011;64492;51.270;3.912;2022-12-04T10:35:17;18.02;;;10.32;;
75843;SDS011;64492;51.270;3.912;2022-12-04T10:37:45;18.45;;;10.38;;
75843;SDS011;64492;51.270;3.912;2022-12-04T10:40:14;16.25;;;10.05;;
75843;SDS011;64492;51.270;3.912;2022-12-04T10:42:46;16.63;;;11.00;;
75843;SDS011;64492;51.270;3.912;2022-12-04T10:45:16;17.52;;;10.40;;
75843;SDS011;64492;51.270;3.912;2022-12-04T10:47:44;19.05;;;11.25;;
75843;SDS011;64492;51.270;3.912;2022-12-04T10:50:12;17.88;;;10.90;;
75843;SDS011;64492;51.270;3.912;2022-12-04T10:52:40;19.20;;;11.32;;
75843;SDS011;64492;51.270;3.912;2022-12-04T10:55:06;17.65;;;10.38;;
75843;SDS011;64492;51.270;3.912;2022-12-04T10:57:34;19.45;;;10.32;;
75843;SDS011;64492;51.270;3.912;2022-12-04T11:00:18;17.35;;;9.90;;
75843;SDS011;64492;51.270;3.912;2022-12-04T11:02:49;17.75;;;10.23;;
75843;SDS011;64492;51.270;3.912;2022-12-04T11:05:21;18.17;;;11.18;;
75843;SDS011;64492;51.270;3.912;2022-12-04T11:07:49;19.50;;;10.90;;
75843;SDS011;64492;51.270;3.912;2022-12-04T11:10:17;20.88;;;10.18;;
75843;SDS011;64492;51.270;3.912;2022-12-04T11:12:52;18.55;;;10.50;;
75843;SDS011;64492;51.270;3.912;2022-12-04T11:15:20;16.23;;;9.65;;
75843;SDS011;64492;51.270;3.912;2022-12-04T11:20:14;16.85;;;9.98;;
75843;SDS011;64492;51.270;3.912;2022-12-04T11:22:47;17.23;;;10.55;;
75843;SDS011;64492;51.270;3.912;2022-12-04T11:25:16;18.45;;;10.40;;
75843;SDS011;64492;51.270;3.912;2022-12-04T11:30:12;18.00;;;10.10;;
75843;SDS011;64492;51.270;3.912;2022-12-04T11:32:42;19.23;;;10.35;;
75843;SDS011;64492;51.270;3.912;2022-12-04T11:35:11;19.10;;;10.40;;
75843;SDS011;64492;51.270;3.912;2022-12-04T11:37:41;20.42;;;10.38;;
75843;SDS011;64492;51.270;3.912;2022-12-04T11:40:13;17.00;;;10.20;;
75843;SDS011;64492;51.270;3.912;2022-12-04T11:42:43;19.95;;;11.30;;
75843;SDS011;64492;51.270;3.912;2022-12-04T11:45:17;19.23;;;11.13;;
75843;SDS011;64492;51.270;3.912;2022-12-04T11:47:53;17.77;;;11.23;;
75843;SDS011;64492;51.270;3.912;2022-12-04T11:50:23;17.58;;;10.30;;
75843;SDS011;64492;51.270;3.912;2022-12-04T11:52:58;18.90;;;10.82;;
75843;SDS011;64492;51.270;3.912;2022-12-04T11:55:31;17.65;;;11.13;;
75843;SDS011;64492;51.270;3.912;2022-12-04T11:58:09;16.95;;;10.07;;
75843;SDS011;64492;51.270;3.912;2022-12-04T12:00:44;16.90;;;10.07;;
75843;SDS011;64492;51.270;3.912;2022-12-04T12:03:15;19.00;;;11.10;;
75843;SDS011;64492;51.270;3.912;2022-12-04T12:05:49;17.27;;;10.32;;
75843;SDS011;64492;51.270;3.912;2022-12-04T12:08:23;19.30;;;11.00;;
75843;SDS011;64492;51.270;3.912;2022-12-04T12:11:00;17.63;;;10.93;;
75843;SDS011;64492;51.270;3.912;2022-12-04T12:13:33;17.45;;;11.18;;
75843;SDS011;64492;51.270;3.912;2022-12-04T12:16:08;17.50;;;11.05;;
75843;SDS011;64492;51.270;3.912;2022-12-04T12:18:56;16.27;;;10.18;;
75843;SDS011;64492;51.270;3.912;2022-12-04T12:21:32;16.48;;;10.13;;
75843;SDS011;64492;51.270;3.912;2022-12-04T12:24:09;15.00;;;9.35;;
75843;SDS011;64492;51.270;3.912;2022-12-04T12:26:45;15.98;;;9.77;;
75843;SDS011;64492;51.270;3.912;2022-12-04T12:29:19;16.83;;;9.65;;
75843;SDS011;64492;51.270;3.912;2022-12-04T12:31:55;17.30;;;9.30;;
75843;SDS011;64492;51.270;3.912;2022-12-04T12:34:31;15.82;;;9.52;;
75843;SDS011;64492;51.270;3.912;2022-12-04T12:37:04;16.45;;;10.77;;
75843;SDS011;64492;51.270;3.912;2022-12-04T12:39:37;15.93;;;9.60;;
75843;SDS011;64492;51.270;3.912;2022-12-04T12:42:05;13.88;;;9.77;;
75843;SDS011;64492;51.270;3.912;2022-12-04T12:44:38;17.27;;;9.88;;
75843;SDS011;64492;51.270;3.912;2022-12-04T12:47:14;15.55;;;9.73;;
75843;SDS011;64492;51.270;3.912;2022-12-04T12:49:46;15.95;;;10.05;;
75843;SDS011;64492;51.270;3.912;2022-12-04T12:52:16;15.05;;;9.25;;
75843;SDS011;64492;51.270;3.912;2022-12-04T12:54:49;15.95;;;9.00;;
75843;SDS011;64492;51.270;3.912;2022-12-04T12:57:19;15.05;;;9.55;;
75843;SDS011;64492;51.270;3.912;2022-12-04T12:59:50;16.40;;;9.60;;
75843;SDS011;64492;51.270;3.912;2022-12-04T13:02:21;19.30;;;10.00;;
75843;SDS011;64492;51.270;3.912;2022-12-04T13:04:52;14.20;;;8.80;;
75843;SDS011;64492;51.270;3.912;2022-12-04T13:07:24;18.70;;;9.32;;
75843;SDS011;64492;51.270;3.912;2022-12-04T13:09:54;14.48;;;8.40;;
75843;SDS011;64492;51.270;3.912;2022-12-04T13:12:22;15.20;;;8.75;;
75843;SDS011;64492;51.270;3.912;2022-12-04T13:14:50;15.43;;;8.95;;
75843;SDS011;64492;51.270;3.912;2022-12-04T13:17:17;13.70;;;8.57;;
75843;SDS011;64492;51.270;3.912;2022-12-04T13:19:49;12.85;;;7.47;;
75843;SDS011;64492;51.270;3.912;2022-12-04T13:22:22;14.50;;;7.95;;
75843;SDS011;64492;51.270;3.912;2022-12-04T13:24:58;13.85;;;8.00;;
75843;SDS011;64492;51.270;3.912;2022-12-04T13:27:37;14.13;;;7.95;;
75843;SDS011;64492;51.270;3.912;2022-12-04T13:30:12;15.85;;;8.52;;
75843;SDS011;64492;51.270;3.912;2022-12-04T13:32:58;15.38;;;8.38;;
75843;SDS011;64492;51.270;3.912;2022-12-04T13:35:48;15.43;;;8.43;;
75843;SDS011;64492;51.270;3.912;2022-12-04T13:38:32;13.40;;;8.00;;
75843;SDS011;64492;51.270;3.912;2022-12-04T13:41:07;12.38;;;7.28;;
75843;SDS011;64492;51.270;3.912;2022-12-04T13:43:35;13.30;;;7.95;;
75843;SDS011;64492;51.270;3.912;2022-12-04T13:46:03;13.23;;;7.45;;
75843;SDS011;64492;51.270;3.912;2022-12-04T13:48:32;12.57;;;6.95;;
75843;SDS011;64492;51.270;3.912;2022-12-04T13:51:19;13.90;;;7.65;;
75843;SDS011;64492;51.270;3.912;2022-12-04T13:53:58;14.45;;;7.55;;
75843;SDS011;64492;51.270;3.912;2022-12-04T13:56:44;13.30;;;8.15;;
75843;SDS011;64492;51.270;3.912;2022-12-04T13:59:18;15.15;;;8.38;;
75843;SDS011;64492;51.270;3.912;2022-12-04T14:01:50;13.20;;;7.63;;
75843;SDS011;64492;51.270;3.912;2022-12-04T14:04:22;11.45;;;7.50;;
75843;SDS011;64492;51.270;3.912;2022-12-04T14:06:53;14.30;;;8.18;;
75843;SDS011;64492;51.270;3.912;2022-12-04T14:09:24;11.93;;;7.68;;
75843;SDS011;64492;51.270;3.912;2022-12-04T14:11:53;11.70;;;6.78;;
75843;SDS011;64492;51.270;3.912;2022-12-04T14:14:24;14.48;;;7.45;;
75843;SDS011;64492;51.270;3.912;2022-12-04T14:16:52;13.38;;;7.85;;
75843;SDS011;64492;51.270;3.912;2022-12-04T14:19:23;13.10;;;7.07;;
75843;SDS011;64492;51.270;3.912;2022-12-04T14:21:58;14.63;;;6.70;;
75843;SDS011;64492;51.270;3.912;2022-12-04T14:24:30;11.52;;;7.22;;
75843;SDS011;64492;51.270;3.912;2022-12-04T14:29:29;11.23;;;6.72;;
75843;SDS011;64492;51.270;3.912;2022-12-04T14:32:08;10.90;;;6.93;;
75843;SDS011;64492;51.270;3.912;2022-12-04T14:34:38;11.98;;;7.13;;
75843;SDS011;64492;51.270;3.912;2022-12-04T14:37:10;12.63;;;7.47;;
75843;SDS011;64492;51.270;3.912;2022-12-04T14:39:44;11.77;;;6.90;;
75843;SDS011;64492;51.270;3.912;2022-12-04T14:42:12;12.93;;;7.10;;
75843;SDS011;64492;51.270;3.912;2022-12-04T14:44:40;11.73;;;6.95;;
75843;SDS011;64492;51.270;3.912;2022-12-04T14:47:13;10.52;;;6.85;;
75843;SDS011;64492;51.270;3.912;2022-12-04T14:52:15;11.30;;;7.18;;
75843;SDS011;64492;51.270;3.912;2022-12-04T14:54:48;11.18;;;6.88;;
75843;SDS011;64492;51.270;3.912;2022-12-04T14:57:21;10.10;;;6.28;;
75843;SDS011;64492;51.270;3.912;2022-12-04T14:59:53;11.38;;;6.60;;
75843;SDS011;64492;51.270;3.912;2022-12-04T15:02:21;10.38;;;6.30;;
75843;SDS011;64492;51.270;3.912;2022-12-04T15:04:50;12.98;;;7.43;;
75843;SDS011;64492;51.270;3.912;2022-12-04T15:07:20;9.73;;;6.60;;
75843;SDS011;64492;51.270;3.912;2022-12-04T15:09:51;11.27;;;6.35;;
75843;SDS011;64492;51.270;3.912;2022-12-04T15:12:41;10.35;;;6.68;;